sensor_id;sensor_type;location;lat;lon;timestamp;P1;durP1;ratioP1;P2;durP2;ratioP2
47025;SDS011;32783;51.756;-2.556;2022-12-10T00:01:37;4.28;;;3.08;;
47025;SDS011;32783;51.756;-2.556;2022-12-10T00:04:03;4.95;;;3.10;;
47025;SDS011;32783;51.756;-2.556;2022-12-10T00:06:30;5.93;;;3.92;;
47025;SDS011;32783;51.756;-2.556;2022-12-10T00:08:56;5.25;;;3.15;;
47025;SDS011;32783;51.756;-2.556;2022-12-10T00:11:22;5.00;;;3.33;;
47025;SDS011;32783;51.756;-2.556;2022-12-10T00:13:48;8.30;;;3.50;;
47025;SDS011;32783;51.756;-2.556;2022-12-10T00:16:16;3.47;;;3.03;;
47025;SDS011;32783;51.756;-2.556;2022-12-10T00:18:43;4.25;;;3.20;;
47025;SDS011;32783;51.756;-2.556;2022-12-10T00:21:10;3.55;;;2.97;;
47025;SDS011;32783;51.756;-2.556;2022-12-10T00:23:40;4.60;;;3.22;;
47025;SDS011;32783;51.756;-2.556;2022-12-10T00:26:06;3.88;;;2.97;;
47025;SDS011;32783;51.756;-2.556;2022-12-10T00:28:32;3.40;;;2.53;;
47025;SDS011;32783;51.756;-2.556;2022-12-10T00:31:08;4.30;;;3.00;;
47025;SDS011;32783;51.756;-2.556;2022-12-10T00:33:37;5.30;;;3.08;;
47025;SDS011;32783;51.756;-2.556;2022-12-10T00:36:03;5.97;;;3.38;;
47025;SDS011;32783;51.756;-2.556;2022-12-10T00:38:32;4.68;;;3.17;;
47025;SDS011;32783;51.756;-2.556;2022-12-10T00:40:58;4.32;;;3.05;;
47025;SDS011;32783;51.756;-2.556;2022-12-10T00:43:24;3.20;;;2.70;;
47025;SDS011;32783;51.756;-2.556;2022-12-10T00:45:50;3.97;;;2.97;;
47025;SDS011;32783;51.756;-2.556;2022-12-10T00:48:15;5.40;;;2.90;;
47025;SDS011;32783;51.756;-2.556;2022-12-10T00:50:40;5.30;;;2.85;;
47025;SDS011;32783;51.756;-2.556;2022-12-10T00:53:06;3.72;;;3.00;;
47025;SDS011;32783;51.756;-2.556;2022-12-10T00:55:31;3.58;;;2.97;;
47025;SDS011;32783;51.756;-2.556;2022-12-10T00:57:57;3.90;;;3.05;;
47025;SDS011;32783;51.756;-2.556;2022-12-10T01:00:22;3.22;;;2.92;;
47025;SDS011;32783;51.756;-2.556;2022-12-10T01:02:49;4.15;;;3.25;;
47025;SDS011;32783;51.756;-2.556;2022-12-10T01:05:14;2.85;;;2.60;;
47025;SDS011;32783;51.756;-2.556;2022-12-10T01:07:40;2.97;;;2.38;;
47025;SDS011;32783;51.756;-2.556;2022-12-10T01:10:05;3.90;;;2.92;;
47025;SDS011;32783;51.756;-2.556;2022-12-10T01:12:31;3.20;;;2.75;;
47025;SDS011;32783;51.756;-2.556;2022-12-10T01:14:56;3.40;;;2.80;;
47025;SDS011;32783;51.756;-2.556;2022-12-10T01:17:21;3.33;;;2.85;;
47025;SDS011;32783;51.756;-2.556;2022-12-10T01:19:47;3.20;;;2.72;;
47025;SDS011;32783;51.756;-2.556;2022-12-10T01:22:12;3.05;;;2.72;;
47025;SDS011;32783;51.756;-2.556;2022-12-10T01:24:38;3.97;;;2.67;;
47025;SDS011;32783;51.756;-2.556;2022-12-10T01:27:03;4.13;;;3.20;;
47025;SDS011;32783;51.756;-2.556;2022-12-10T01:29:29;5.43;;;3.20;;
47025;SDS011;32783;51.756;-2.556;2022-12-10T01:31:55;3.80;;;2.90;;
47025;SDS011;32783;51.756;-2.556;2022-12-10T01:34:21;4.00;;;3.35;;
47025;SDS011;32783;51.756;-2.556;2022-12-10T01:36:51;4.68;;;3.13;;
47025;SDS011;32783;51.756;-2.556;2022-12-10T01:39:18;3.50;;;2.47;;
47025;SDS011;32783;51.756;-2.556;2022-12-10T01:46:55;3.63;;;3.03;;
47025;SDS011;32783;51.756;-2.556;2022-12-10T01:49:23;3.72;;;3.00;;
47025;SDS011;32783;51.756;-2.556;2022-12-10T01:51:52;4.67;;;3.00;;
47025;SDS011;32783;51.756;-2.556;2022-12-10T01:54:21;3.88;;;2.88;;
47025;SDS011;32783;51.756;-2.556;2022-12-10T01:59:15;4.40;;;3.35;;
47025;SDS011;32783;51.756;-2.556;2022-12-10T02:01:53;4.15;;;3.15;;
47025;SDS011;32783;51.756;-2.556;2022-12-10T02:04:29;3.60;;;2.92;;
47025;SDS011;32783;51.756;-2.556;2022-12-10T02:07:00;3.50;;;2.83;;
47025;SDS011;32783;51.756;-2.556;2022-12-10T02:22:09;3.72;;;2.85;;
47025;SDS011;32783;51.756;-2.556;2022-12-10T02:24:35;4.68;;;3.17;;
47025;SDS011;32783;51.756;-2.556;2022-12-10T02:27:06;3.53;;;3.05;;
47025;SDS011;32783;51.756;-2.556;2022-12-10T02:29:37;3.72;;;2.85;;
47025;SDS011;32783;51.756;-2.556;2022-12-10T02:32:10;3.10;;;2.67;;
47025;SDS011;32783;51.756;-2.556;2022-12-10T02:34:43;3.75;;;2.78;;
47025;SDS011;32783;51.756;-2.556;2022-12-10T02:37:17;3.78;;;2.90;;
47025;SDS011;32783;51.756;-2.556;2022-12-10T02:39:58;3.55;;;3.00;;
47025;SDS011;32783;51.756;-2.556;2022-12-10T02:42:24;3.90;;;2.70;;
47025;SDS011;32783;51.756;-2.556;2022-12-10T02:44:51;4.32;;;3.20;;
47025;SDS011;32783;51.756;-2.556;2022-12-10T02:47:17;3.97;;;3.10;;
47025;SDS011;32783;51.756;-2.556;2022-12-10T02:49:43;3.50;;;2.58;;
47025;SDS011;32783;51.756;-2.556;2022-12-10T02:52:14;3.10;;;2.72;;
47025;SDS011;32783;51.756;-2.556;2022-12-10T02:54:46;3.83;;;3.33;;
47025;SDS011;32783;51.756;-2.556;2022-12-10T02:57:35;3.50;;;2.97;;
47025;SDS011;32783;51.756;-2.556;2022-12-10T03:02:34;3.47;;;2.72;;
47025;SDS011;32783;51.756;-2.556;2022-12-10T03:10:30;3.25;;;2.67;;
47025;SDS011;32783;51.756;-2.556;2022-12-10T03:12:59;4.63;;;2.55;;
47025;SDS011;32783;51.756;-2.556;2022-12-10T03:15:27;3.17;;;2.85;;
47025;SDS011;32783;51.756;-2.556;2022-12-10T03:17:53;3.17;;;2.78;;
47025;SDS011;32783;51.756;-2.556;2022-12-10T03:20:19;3.03;;;2.63;;
47025;SDS011;32783;51.756;-2.556;2022-12-10T03:22:46;3.17;;;2.60;;
47025;SDS011;32783;51.756;-2.556;2022-12-10T03:25:13;2.97;;;2.60;;
47025;SDS011;32783;51.756;-2.556;2022-12-10T03:27:44;3.50;;;3.00;;
47025;SDS011;32783;51.756;-2.556;2022-12-10T03:30:11;3.70;;;2.70;;
47025;SDS011;32783;51.756;-2.556;2022-12-10T03:32:36;3.35;;;2.75;;
47025;SDS011;32783;51.756;-2.556;2022-12-10T03:35:02;3.55;;;2.78;;
47025;SDS011;32783;51.756;-2.556;2022-12-10T03:37:28;3.53;;;2.67;;
47025;SDS011;32783;51.756;-2.556;2022-12-10T03:39:55;3.05;;;2.70;;
47025;SDS011;32783;51.756;-2.556;2022-12-10T03:42:21;3.22;;;2.50;;
47025;SDS011;32783;51.756;-2.556;2022-12-10T03:44:48;2.42;;;2.17;;
47025;SDS011;32783;51.756;-2.556;2022-12-10T03:47:15;3.53;;;2.78;;
47025;SDS011;32783;51.756;-2.556;2022-12-10T03:49:41;2.80;;;2.35;;
47025;SDS011;32783;51.756;-2.556;2022-12-10T03:52:07;3.70;;;2.80;;
47025;SDS011;32783;51.756;-2.556;2022-12-10T03:54:32;3.90;;;2.40;;
47025;SDS011;32783;51.756;-2.556;2022-12-10T03:56:57;4.60;;;2.80;;
47025;SDS011;32783;51.756;-2.556;2022-12-10T03:59:23;2.88;;;2.38;;
47025;SDS011;32783;51.756;-2.556;2022-12-10T04:01:48;2.88;;;2.40;;
47025;SDS011;32783;51.756;-2.556;2022-12-10T04:04:14;3.05;;;2.60;;
47025;SDS011;32783;51.756;-2.556;2022-12-10T04:06:39;4.57;;;2.90;;
47025;SDS011;32783;51.756;-2.556;2022-12-10T04:09:06;3.13;;;2.30;;
47025;SDS011;32783;51.756;-2.556;2022-12-10T04:11:31;3.50;;;2.80;;
47025;SDS011;32783;51.756;-2.556;2022-12-10T04:13:57;3.30;;;2.70;;
47025;SDS011;32783;51.756;-2.556;2022-12-10T04:16:40;3.22;;;2.65;;
47025;SDS011;32783;51.756;-2.556;2022-12-10T04:19:08;3.03;;;2.60;;
47025;SDS011;32783;51.756;-2.556;2022-12-10T04:21:35;3.28;;;2.72;;
47025;SDS011;32783;51.756;-2.556;2022-12-10T04:24:27;2.58;;;2.35;;
47025;SDS011;32783;51.756;-2.556;2022-12-10T04:27:13;3.10;;;2.63;;
47025;SDS011;32783;51.756;-2.556;2022-12-10T04:29:51;2.88;;;2.47;;
47025;SDS011;32783;51.756;-2.556;2022-12-10T04:32:17;3.78;;;2.58;;
47025;SDS011;32783;51.756;-2.556;2022-12-10T04:34:43;2.90;;;2.40;;
47025;SDS011;32783;51.756;-2.556;2022-12-10T04:37:08;2.70;;;2.33;;
47025;SDS011;32783;51.756;-2.556;2022-12-10T04:39:36;3.13;;;2.60;;
47025;SDS011;32783;51.756;-2.556;2022-12-10T04:42:01;4.28;;;2.85;;
47025;SDS011;32783;51.756;-2.556;2022-12-10T04:44:27;3.80;;;2.53;;
47025;SDS011;32783;51.756;-2.556;2022-12-10T04:46:52;4.07;;;2.28;;
47025;SDS011;32783;51.756;-2.556;2022-12-10T04:49:18;2.53;;;2.33;;
47025;SDS011;32783;51.756;-2.556;2022-12-10T04:51:43;3.70;;;2.40;;
47025;SDS011;32783;51.756;-2.556;2022-12-10T04:54:09;2.33;;;2.13;;
47025;SDS011;32783;51.756;-2.556;2022-12-10T04:56:35;2.85;;;2.20;;
47025;SDS011;32783;51.756;-2.556;2022-12-10T04:59:00;2.40;;;2.10;;
47025;SDS011;32783;51.756;-2.556;2022-12-10T05:01:26;3.22;;;2.35;;
47025;SDS011;32783;51.756;-2.556;2022-12-10T05:03:52;2.63;;;2.20;;
47025;SDS011;32783;51.756;-2.556;2022-12-10T05:06:18;3.80;;;2.70;;
47025;SDS011;32783;51.756;-2.556;2022-12-10T05:08:44;2.88;;;2.58;;
47025;SDS011;32783;51.756;-2.556;2022-12-10T05:11:11;2.75;;;2.25;;
47025;SDS011;32783;51.756;-2.556;2022-12-10T05:13:38;2.42;;;2.03;;
47025;SDS011;32783;51.756;-2.556;2022-12-10T05:16:05;2.75;;;2.15;;
47025;SDS011;32783;51.756;-2.556;2022-12-10T05:18:31;2.90;;;2.33;;
47025;SDS011;32783;51.756;-2.556;2022-12-10T05:21:00;3.15;;;2.30;;
47025;SDS011;32783;51.756;-2.556;2022-12-10T05:26:01;2.47;;;2.28;;
47025;SDS011;32783;51.756;-2.556;2022-12-10T05:28:41;3.05;;;2.25;;
47025;SDS011;32783;51.756;-2.556;2022-12-10T05:31:16;2.45;;;2.25;;
47025;SDS011;32783;51.756;-2.556;2022-12-10T05:33:43;3.08;;;2.42;;
47025;SDS011;32783;51.756;-2.556;2022-12-10T05:36:10;3.13;;;2.53;;
47025;SDS011;32783;51.756;-2.556;2022-12-10T05:38:36;3.17;;;2.10;;
47025;SDS011;32783;51.756;-2.556;2022-12-10T05:41:06;2.58;;;2.17;;
47025;SDS011;32783;51.756;-2.556;2022-12-10T05:43:33;3.53;;;2.30;;
47025;SDS011;32783;51.756;-2.556;2022-12-10T05:46:03;2.90;;;2.30;;
47025;SDS011;32783;51.756;-2.556;2022-12-10T05:48:30;3.03;;;1.95;;
47025;SDS011;32783;51.756;-2.556;2022-12-10T05:50:55;2.70;;;2.30;;
47025;SDS011;32783;51.756;-2.556;2022-12-10T05:53:21;2.55;;;2.10;;
47025;SDS011;32783;51.756;-2.556;2022-12-10T05:55:46;2.55;;;1.90;;
47025;SDS011;32783;51.756;-2.556;2022-12-10T05:58:12;2.63;;;1.83;;
47025;SDS011;32783;51.756;-2.556;2022-12-10T06:00:40;2.45;;;2.10;;
47025;SDS011;32783;51.756;-2.556;2022-12-10T06:03:06;2.40;;;2.10;;
47025;SDS011;32783;51.756;-2.556;2022-12-10T06:05:41;3.67;;;2.47;;
47025;SDS011;32783;51.756;-2.556;2022-12-10T06:08:06;2.33;;;1.83;;
47025;SDS011;32783;51.756;-2.556;2022-12-10T06:10:35;2.33;;;1.85;;
47025;SDS011;32783;51.756;-2.556;2022-12-10T06:13:01;2.60;;;1.85;;
47025;SDS011;32783;51.756;-2.556;2022-12-10T06:15:27;2.42;;;1.88;;
47025;SDS011;32783;51.756;-2.556;2022-12-10T06:17:54;2.78;;;2.08;;
47025;SDS011;32783;51.756;-2.556;2022-12-10T06:20:20;2.25;;;1.80;;
47025;SDS011;32783;51.756;-2.556;2022-12-10T06:22:45;3.10;;;2.00;;
47025;SDS011;32783;51.756;-2.556;2022-12-10T06:25:10;2.63;;;2.08;;
47025;SDS011;32783;51.756;-2.556;2022-12-10T06:27:36;2.72;;;2.10;;
47025;SDS011;32783;51.756;-2.556;2022-12-10T06:30:02;3.13;;;1.60;;
47025;SDS011;32783;51.756;-2.556;2022-12-10T06:32:27;2.70;;;1.80;;
47025;SDS011;32783;51.756;-2.556;2022-12-10T06:34:53;2.20;;;1.65;;
47025;SDS011;32783;51.756;-2.556;2022-12-10T06:37:18;2.90;;;2.00;;
47025;SDS011;32783;51.756;-2.556;2022-12-10T06:39:43;1.98;;;1.50;;
47025;SDS011;32783;51.756;-2.556;2022-12-10T06:42:09;2.45;;;1.70;;
47025;SDS011;32783;51.756;-2.556;2022-12-10T06:44:34;2.17;;;1.73;;
47025;SDS011;32783;51.756;-2.556;2022-12-10T06:47:00;1.83;;;1.48;;
47025;SDS011;32783;51.756;-2.556;2022-12-10T06:49:25;2.38;;;1.77;;
47025;SDS011;32783;51.756;-2.556;2022-12-10T06:51:51;1.88;;;1.50;;
47025;SDS011;32783;51.756;-2.556;2022-12-10T06:54:16;2.33;;;1.80;;
47025;SDS011;32783;51.756;-2.556;2022-12-10T06:56:41;2.05;;;1.50;;
47025;SDS011;32783;51.756;-2.556;2022-12-10T06:59:07;2.13;;;1.85;;
47025;SDS011;32783;51.756;-2.556;2022-12-10T07:01:32;1.70;;;1.40;;
47025;SDS011;32783;51.756;-2.556;2022-12-10T07:03:58;2.83;;;1.95;;
47025;SDS011;32783;51.756;-2.556;2022-12-10T07:06:24;2.00;;;1.80;;
47025;SDS011;32783;51.756;-2.556;2022-12-10T07:08:51;1.80;;;1.30;;
47025;SDS011;32783;51.756;-2.556;2022-12-10T07:11:17;2.25;;;1.67;;
47025;SDS011;32783;51.756;-2.556;2022-12-10T07:13:44;3.80;;;1.65;;
47025;SDS011;32783;51.756;-2.556;2022-12-10T07:18:42;3.22;;;1.60;;
47025;SDS011;32783;51.756;-2.556;2022-12-10T07:21:17;1.85;;;1.30;;
47025;SDS011;32783;51.756;-2.556;2022-12-10T07:23:42;2.25;;;1.58;;
47025;SDS011;32783;51.756;-2.556;2022-12-10T07:26:08;2.00;;;1.60;;
47025;SDS011;32783;51.756;-2.556;2022-12-10T07:28:33;2.08;;;1.50;;
47025;SDS011;32783;51.756;-2.556;2022-12-10T07:31:06;2.60;;;1.50;;
47025;SDS011;32783;51.756;-2.556;2022-12-10T07:33:33;2.00;;;1.50;;
47025;SDS011;32783;51.756;-2.556;2022-12-10T07:35:59;2.67;;;1.40;;
47025;SDS011;32783;51.756;-2.556;2022-12-10T07:38:27;2.22;;;1.67;;
47025;SDS011;32783;51.756;-2.556;2022-12-10T07:40:53;1.90;;;1.30;;
47025;SDS011;32783;51.756;-2.556;2022-12-10T07:43:18;2.00;;;1.38;;
47025;SDS011;32783;51.756;-2.556;2022-12-10T07:45:43;2.40;;;1.83;;
47025;SDS011;32783;51.756;-2.556;2022-12-10T07:48:09;1.67;;;1.40;;
47025;SDS011;32783;51.756;-2.556;2022-12-10T07:50:34;1.85;;;1.40;;
47025;SDS011;32783;51.756;-2.556;2022-12-10T07:53:00;1.85;;;1.13;;
47025;SDS011;32783;51.756;-2.556;2022-12-10T07:55:26;2.03;;;1.63;;
47025;SDS011;32783;51.756;-2.556;2022-12-10T07:57:51;2.33;;;1.50;;
47025;SDS011;32783;51.756;-2.556;2022-12-10T08:00:16;1.83;;;1.27;;
47025;SDS011;32783;51.756;-2.556;2022-12-10T08:02:42;2.50;;;1.58;;
47025;SDS011;32783;51.756;-2.556;2022-12-10T08:05:08;3.13;;;1.60;;
47025;SDS011;32783;51.756;-2.556;2022-12-10T08:07:33;2.63;;;1.30;;
47025;SDS011;32783;51.756;-2.556;2022-12-10T08:09:59;2.22;;;1.40;;
47025;SDS011;32783;51.756;-2.556;2022-12-10T08:12:24;2.55;;;1.45;;
47025;SDS011;32783;51.756;-2.556;2022-12-10T08:14:49;2.72;;;1.45;;
47025;SDS011;32783;51.756;-2.556;2022-12-10T08:17:15;2.15;;;1.30;;
47025;SDS011;32783;51.756;-2.556;2022-12-10T08:19:40;1.98;;;1.40;;
47025;SDS011;32783;51.756;-2.556;2022-12-10T08:22:06;2.97;;;1.45;;
47025;SDS011;32783;51.756;-2.556;2022-12-10T08:24:31;1.90;;;1.30;;
47025;SDS011;32783;51.756;-2.556;2022-12-10T08:26:57;1.90;;;1.40;;
47025;SDS011;32783;51.756;-2.556;2022-12-10T08:29:22;4.75;;;1.88;;
47025;SDS011;32783;51.756;-2.556;2022-12-10T08:31:48;3.83;;;1.63;;
47025;SDS011;32783;51.756;-2.556;2022-12-10T08:34:14;2.95;;;1.75;;
47025;SDS011;32783;51.756;-2.556;2022-12-10T08:36:41;5.53;;;1.95;;
47025;SDS011;32783;51.756;-2.556;2022-12-10T08:39:07;1.83;;;1.40;;
47025;SDS011;32783;51.756;-2.556;2022-12-10T08:41:35;2.95;;;1.60;;
47025;SDS011;32783;51.756;-2.556;2022-12-10T08:44:01;2.88;;;1.80;;
47025;SDS011;32783;51.756;-2.556;2022-12-10T08:46:26;3.97;;;1.95;;
47025;SDS011;32783;51.756;-2.556;2022-12-10T08:48:53;3.05;;;1.70;;
47025;SDS011;32783;51.756;-2.556;2022-12-10T08:51:19;8.95;;;2.35;;
47025;SDS011;32783;51.756;-2.556;2022-12-10T08:53:45;2.25;;;1.35;;
47025;SDS011;32783;51.756;-2.556;2022-12-10T08:56:11;2.38;;;1.58;;
47025;SDS011;32783;51.756;-2.556;2022-12-10T08:58:37;5.72;;;1.73;;
47025;SDS011;32783;51.756;-2.556;2022-12-10T09:01:07;6.18;;;1.73;;
47025;SDS011;32783;51.756;-2.556;2022-12-10T09:03:34;2.28;;;1.50;;
47025;SDS011;32783;51.756;-2.556;2022-12-10T09:06:07;5.88;;;2.00;;
47025;SDS011;32783;51.756;-2.556;2022-12-10T09:08:33;12.02;;;1.95;;
47025;SDS011;32783;51.756;-2.556;2022-12-10T09:11:04;7.32;;;2.00;;
47025;SDS011;32783;51.756;-2.556;2022-12-10T09:13:33;5.30;;;1.65;;
47025;SDS011;32783;51.756;-2.556;2022-12-10T09:15:59;5.53;;;1.85;;
47025;SDS011;32783;51.756;-2.556;2022-12-10T09:18:24;13.13;;;1.88;;
47025;SDS011;32783;51.756;-2.556;2022-12-10T09:20:50;8.18;;;1.40;;
47025;SDS011;32783;51.756;-2.556;2022-12-10T09:23:15;3.45;;;1.50;;
47025;SDS011;32783;51.756;-2.556;2022-12-10T09:25:41;10.23;;;1.80;;
47025;SDS011;32783;51.756;-2.556;2022-12-10T09:28:06;8.63;;;2.17;;
47025;SDS011;32783;51.756;-2.556;2022-12-10T09:30:32;10.60;;;2.55;;
47025;SDS011;32783;51.756;-2.556;2022-12-10T09:32:58;11.43;;;2.88;;
47025;SDS011;32783;51.756;-2.556;2022-12-10T09:35:23;7.30;;;2.10;;
47025;SDS011;32783;51.756;-2.556;2022-12-10T09:37:49;7.53;;;2.30;;
47025;SDS011;32783;51.756;-2.556;2022-12-10T09:40:15;5.95;;;1.60;;
47025;SDS011;32783;51.756;-2.556;2022-12-10T09:42:59;7.95;;;2.60;;
47025;SDS011;32783;51.756;-2.556;2022-12-10T09:48:23;2.95;;;1.63;;
47025;SDS011;32783;51.756;-2.556;2022-12-10T09:51:10;4.40;;;1.67;;
47025;SDS011;32783;51.756;-2.556;2022-12-10T09:56:04;10.68;;;2.35;;
47025;SDS011;32783;51.756;-2.556;2022-12-10T09:58:30;9.00;;;2.47;;
47025;SDS011;32783;51.756;-2.556;2022-12-10T10:01:00;13.45;;;2.20;;
47025;SDS011;32783;51.756;-2.556;2022-12-10T10:03:27;9.20;;;1.98;;
47025;SDS011;32783;51.756;-2.556;2022-12-10T10:06:02;6.80;;;2.25;;
47025;SDS011;32783;51.756;-2.556;2022-12-10T10:08:33;6.90;;;1.95;;
47025;SDS011;32783;51.756;-2.556;2022-12-10T10:11:02;4.30;;;1.73;;
47025;SDS011;32783;51.756;-2.556;2022-12-10T10:13:41;8.23;;;3.03;;
47025;SDS011;32783;51.756;-2.556;2022-12-10T10:16:16;14.30;;;3.58;;
47025;SDS011;32783;51.756;-2.556;2022-12-10T10:18:50;6.45;;;3.25;;
47025;SDS011;32783;51.756;-2.556;2022-12-10T10:21:24;9.27;;;3.47;;
47025;SDS011;32783;51.756;-2.556;2022-12-10T10:26:17;6.90;;;2.42;;
47025;SDS011;32783;51.756;-2.556;2022-12-10T10:28:43;7.38;;;2.92;;
47025;SDS011;32783;51.756;-2.556;2022-12-10T10:31:25;14.38;;;3.70;;
47025;SDS011;32783;51.756;-2.556;2022-12-10T10:33:55;7.63;;;2.25;;
47025;SDS011;32783;51.756;-2.556;2022-12-10T10:36:24;6.55;;;2.97;;
47025;SDS011;32783;51.756;-2.556;2022-12-10T10:38:51;9.27;;;2.97;;
47025;SDS011;32783;51.756;-2.556;2022-12-10T10:41:17;12.27;;;2.80;;
47025;SDS011;32783;51.756;-2.556;2022-12-10T10:43:42;9.15;;;3.35;;
47025;SDS011;32783;51.756;-2.556;2022-12-10T10:46:22;6.90;;;3.20;;
47025;SDS011;32783;51.756;-2.556;2022-12-10T10:48:48;15.15;;;3.75;;
47025;SDS011;32783;51.756;-2.556;2022-12-10T10:53:42;11.15;;;3.60;;
47025;SDS011;32783;51.756;-2.556;2022-12-10T10:56:13;14.05;;;4.20;;
47025;SDS011;32783;51.756;-2.556;2022-12-10T11:01:23;9.65;;;3.35;;
47025;SDS011;32783;51.756;-2.556;2022-12-10T11:03:53;13.10;;;4.28;;
47025;SDS011;32783;51.756;-2.556;2022-12-10T11:06:20;9.73;;;3.22;;
47025;SDS011;32783;51.756;-2.556;2022-12-10T11:08:46;5.30;;;2.80;;
47025;SDS011;32783;51.756;-2.556;2022-12-10T11:11:20;6.95;;;3.30;;
47025;SDS011;32783;51.756;-2.556;2022-12-10T11:13:47;8.52;;;3.10;;
47025;SDS011;32783;51.756;-2.556;2022-12-10T11:16:20;5.20;;;2.90;;
47025;SDS011;32783;51.756;-2.556;2022-12-10T11:18:57;6.13;;;2.75;;
47025;SDS011;32783;51.756;-2.556;2022-12-10T11:21:31;8.13;;;2.70;;
47025;SDS011;32783;51.756;-2.556;2022-12-10T11:23:58;5.32;;;3.30;;
47025;SDS011;32783;51.756;-2.556;2022-12-10T11:26:28;6.10;;;2.90;;
47025;SDS011;32783;51.756;-2.556;2022-12-10T11:40:20;5.72;;;2.90;;
47025;SDS011;32783;51.756;-2.556;2022-12-10T11:45:24;3.08;;;2.78;;
47025;SDS011;32783;51.756;-2.556;2022-12-10T11:50:47;6.53;;;2.60;;
47025;SDS011;32783;51.756;-2.556;2022-12-10T12:17:52;6.60;;;3.33;;
47025;SDS011;32783;51.756;-2.556;2022-12-10T12:20:28;3.63;;;2.80;;
47025;SDS011;32783;51.756;-2.556;2022-12-10T12:22:58;7.55;;;3.28;;
47025;SDS011;32783;51.756;-2.556;2022-12-10T12:25:34;6.50;;;2.85;;
47025;SDS011;32783;51.756;-2.556;2022-12-10T12:30:26;8.30;;;2.95;;
47025;SDS011;32783;51.756;-2.556;2022-12-10T12:32:54;9.15;;;4.00;;
47025;SDS011;32783;51.756;-2.556;2022-12-10T12:35:46;8.82;;;3.97;;
47025;SDS011;32783;51.756;-2.556;2022-12-10T12:43:25;7.00;;;4.07;;
47025;SDS011;32783;51.756;-2.556;2022-12-10T12:45:58;7.90;;;3.55;;
47025;SDS011;32783;51.756;-2.556;2022-12-10T12:48:29;5.70;;;3.20;;
47025;SDS011;32783;51.756;-2.556;2022-12-10T12:51:07;5.90;;;3.63;;
47025;SDS011;32783;51.756;-2.556;2022-12-10T12:53:35;4.30;;;3.10;;
47025;SDS011;32783;51.756;-2.556;2022-12-10T13:04:01;4.93;;;3.20;;
47025;SDS011;32783;51.756;-2.556;2022-12-10T13:06:28;5.50;;;3.08;;
47025;SDS011;32783;51.756;-2.556;2022-12-10T13:11:36;4.53;;;2.88;;
47025;SDS011;32783;51.756;-2.556;2022-12-10T13:25:09;5.30;;;2.70;;
47025;SDS011;32783;51.756;-2.556;2022-12-10T13:32:22;5.85;;;2.70;;
47025;SDS011;32783;51.756;-2.556;2022-12-10T13:35:15;4.25;;;2.70;;
47025;SDS011;32783;51.756;-2.556;2022-12-10T13:37:38;5.32;;;2.88;;
47025;SDS011;32783;51.756;-2.556;2022-12-10T13:40:24;5.97;;;2.90;;
47025;SDS011;32783;51.756;-2.556;2022-12-10T13:48:55;6.07;;;3.13;;
47025;SDS011;32783;51.756;-2.556;2022-12-10T13:51:52;7.38;;;2.53;;
47025;SDS011;32783;51.756;-2.556;2022-12-10T14:00:01;4.45;;;2.83;;
47025;SDS011;32783;51.756;-2.556;2022-12-10T14:02:42;10.02;;;3.03;;
47025;SDS011;32783;51.756;-2.556;2022-12-10T14:08:32;5.95;;;2.28;;
47025;SDS011;32783;51.756;-2.556;2022-12-10T14:10:59;5.63;;;2.33;;
47025;SDS011;32783;51.756;-2.556;2022-12-10T14:13:41;3.53;;;2.17;;
47025;SDS011;32783;51.756;-2.556;2022-12-10T14:16:12;5.63;;;2.42;;
47025;SDS011;32783;51.756;-2.556;2022-12-10T14:18:41;2.58;;;2.13;;
47025;SDS011;32783;51.756;-2.556;2022-12-10T14:21:07;4.50;;;2.53;;
47025;SDS011;32783;51.756;-2.556;2022-12-10T14:23:33;4.35;;;2.10;;
47025;SDS011;32783;51.756;-2.556;2022-12-10T14:28:32;9.63;;;2.42;;
47025;SDS011;32783;51.756;-2.556;2022-12-10T14:30:58;7.57;;;2.50;;
47025;SDS011;32783;51.756;-2.556;2022-12-10T14:33:24;8.90;;;2.80;;
47025;SDS011;32783;51.756;-2.556;2022-12-10T14:35:50;5.90;;;2.20;;
47025;SDS011;32783;51.756;-2.556;2022-12-10T14:38:17;6.00;;;2.47;;
47025;SDS011;32783;51.756;-2.556;2022-12-10T14:40:52;6.03;;;2.15;;
47025;SDS011;32783;51.756;-2.556;2022-12-10T14:43:19;11.68;;;2.63;;
47025;SDS011;32783;51.756;-2.556;2022-12-10T14:45:53;7.05;;;2.85;;
47025;SDS011;32783;51.756;-2.556;2022-12-10T14:48:21;4.18;;;2.03;;
47025;SDS011;32783;51.756;-2.556;2022-12-10T14:50:47;9.00;;;1.80;;
47025;SDS011;32783;51.756;-2.556;2022-12-10T14:53:20;4.80;;;2.40;;
47025;SDS011;32783;51.756;-2.556;2022-12-10T14:55:49;14.57;;;3.28;;
47025;SDS011;32783;51.756;-2.556;2022-12-10T14:58:38;3.85;;;2.03;;
47025;SDS011;32783;51.756;-2.556;2022-12-10T15:01:12;6.75;;;2.42;;
47025;SDS011;32783;51.756;-2.556;2022-12-10T15:03:52;4.57;;;2.20;;
47025;SDS011;32783;51.756;-2.556;2022-12-10T15:06:18;6.20;;;2.22;;
47025;SDS011;32783;51.756;-2.556;2022-12-10T15:08:44;13.60;;;3.75;;
47025;SDS011;32783;51.756;-2.556;2022-12-10T15:11:10;6.57;;;2.65;;
47025;SDS011;32783;51.756;-2.556;2022-12-10T15:13:41;10.35;;;5.63;;
47025;SDS011;32783;51.756;-2.556;2022-12-10T15:16:15;12.68;;;3.95;;
47025;SDS011;32783;51.756;-2.556;2022-12-10T15:18:45;9.80;;;3.60;;
47025;SDS011;32783;51.756;-2.556;2022-12-10T15:21:13;9.70;;;3.05;;
47025;SDS011;32783;51.756;-2.556;2022-12-10T15:23:46;6.22;;;2.47;;
47025;SDS011;32783;51.756;-2.556;2022-12-10T15:26:19;7.55;;;3.35;;
47025;SDS011;32783;51.756;-2.556;2022-12-10T15:28:52;4.45;;;2.75;;
47025;SDS011;32783;51.756;-2.556;2022-12-10T15:31:57;5.63;;;2.60;;
47025;SDS011;32783;51.756;-2.556;2022-12-10T15:34:26;4.95;;;2.42;;
47025;SDS011;32783;51.756;-2.556;2022-12-10T15:36:54;4.90;;;2.33;;
47025;SDS011;32783;51.756;-2.556;2022-12-10T15:41:52;8.55;;;2.65;;
47025;SDS011;32783;51.756;-2.556;2022-12-10T15:49:22;7.65;;;3.00;;
47025;SDS011;32783;51.756;-2.556;2022-12-10T15:51:48;9.98;;;3.03;;
47025;SDS011;32783;51.756;-2.556;2022-12-10T15:54:27;11.60;;;2.65;;
47025;SDS011;32783;51.756;-2.556;2022-12-10T15:56:57;6.88;;;3.00;;
47025;SDS011;32783;51.756;-2.556;2022-12-10T15:59:22;5.10;;;2.38;;
47025;SDS011;32783;51.756;-2.556;2022-12-10T16:01:48;6.25;;;2.28;;
47025;SDS011;32783;51.756;-2.556;2022-12-10T16:04:13;6.72;;;2.80;;
47025;SDS011;32783;51.756;-2.556;2022-12-10T16:06:39;2.72;;;2.20;;
47025;SDS011;32783;51.756;-2.556;2022-12-10T16:09:05;4.53;;;2.13;;
47025;SDS011;32783;51.756;-2.556;2022-12-10T16:11:30;11.25;;;2.85;;
47025;SDS011;32783;51.756;-2.556;2022-12-10T16:13:56;8.15;;;2.38;;
47025;SDS011;32783;51.756;-2.556;2022-12-10T16:16:22;24.17;;;4.88;;
47025;SDS011;32783;51.756;-2.556;2022-12-10T16:18:48;83.63;;;9.05;;
47025;SDS011;32783;51.756;-2.556;2022-12-10T16:21:14;40.33;;;6.15;;
47025;SDS011;32783;51.756;-2.556;2022-12-10T16:23:39;22.63;;;4.50;;
47025;SDS011;32783;51.756;-2.556;2022-12-10T16:26:15;17.00;;;4.35;;
47025;SDS011;32783;51.756;-2.556;2022-12-10T16:28:42;16.23;;;3.92;;
47025;SDS011;32783;51.756;-2.556;2022-12-10T16:31:09;10.45;;;3.63;;
47025;SDS011;32783;51.756;-2.556;2022-12-10T16:33:36;13.38;;;3.25;;
47025;SDS011;32783;51.756;-2.556;2022-12-10T16:36:02;11.02;;;2.90;;
47025;SDS011;32783;51.756;-2.556;2022-12-10T16:38:27;15.05;;;3.25;;
47025;SDS011;32783;51.756;-2.556;2022-12-10T16:40:53;14.18;;;3.58;;
47025;SDS011;32783;51.756;-2.556;2022-12-10T16:43:23;11.02;;;3.22;;
47025;SDS011;32783;51.756;-2.556;2022-12-10T16:45:57;13.70;;;3.00;;
47025;SDS011;32783;51.756;-2.556;2022-12-10T16:48:23;16.58;;;3.80;;
47025;SDS011;32783;51.756;-2.556;2022-12-10T16:50:49;19.58;;;3.55;;
47025;SDS011;32783;51.756;-2.556;2022-12-10T16:53:19;12.60;;;3.47;;
47025;SDS011;32783;51.756;-2.556;2022-12-10T16:55:47;10.23;;;2.92;;
47025;SDS011;32783;51.756;-2.556;2022-12-10T16:58:13;7.70;;;2.78;;
47025;SDS011;32783;51.756;-2.556;2022-12-10T17:00:40;9.73;;;3.03;;
47025;SDS011;32783;51.756;-2.556;2022-12-10T17:03:10;13.05;;;3.22;;
47025;SDS011;32783;51.756;-2.556;2022-12-10T17:05:47;9.80;;;3.00;;
47025;SDS011;32783;51.756;-2.556;2022-12-10T17:08:24;10.40;;;2.50;;